createdAt,value
2022-11-30T00:01:37.619Z,78.83
2022-11-30T00:04:05.781Z,77.20
2022-11-30T00:06:33.785Z,76.60
2022-11-30T00:09:01.747Z,75.60
2022-11-30T00:11:30.138Z,76.73
2022-11-30T00:14:01.772Z,73.80
2022-11-30T00:16:29.886Z,73.20
2022-11-30T00:18:57.973Z,72.67
2022-11-30T00:21:26.205Z,72.60
2022-11-30T00:23:54.245Z,71.43
2022-11-30T00:26:23.334Z,73.43
2022-11-30T00:28:51.541Z,73.50
2022-11-30T00:31:21.326Z,74.30
2022-11-30T00:33:49.881Z,74.90
2022-11-30T00:36:19.840Z,73.83
2022-11-30T00:38:48.063Z,74.83
2022-11-30T00:41:19.185Z,75.37
2022-11-30T00:43:47.399Z,77.97
2022-11-30T00:46:15.577Z,75.83
2022-11-30T00:48:45.071Z,77.67
2022-11-30T00:51:13.298Z,73.17
2022-11-30T00:53:42.685Z,102.10
2022-11-30T00:56:11.483Z,81.80
2022-11-30T00:58:39.401Z,80.63
2022-11-30T01:01:08.132Z,76.50
2022-11-30T01:03:36.296Z,73.17
2022-11-30T01:06:07.307Z,71.83
2022-11-30T01:08:36.255Z,72.03
2022-11-30T01:11:09.782Z,71.10
2022-11-30T01:13:37.710Z,72.00
2022-11-30T01:16:10.958Z,70.27
2022-11-30T01:18:39.392Z,69.23
2022-11-30T01:21:09.710Z,69.93
2022-11-30T01:23:37.715Z,71.77
2022-11-30T01:26:05.660Z,100.43
2022-11-30T01:28:34.368Z,75.90
2022-11-30T01:31:04.569Z,72.20
2022-11-30T01:33:32.826Z,71.63
2022-11-30T01:36:02.785Z,72.90
2022-11-30T01:38:37.909Z,70.03
2022-11-30T01:41:08.153Z,74.73
2022-11-30T01:43:41.008Z,70.40
2022-11-30T01:46:25.386Z,69.50
2022-11-30T01:48:58.084Z,70.37
2022-11-30T01:51:29.787Z,72.20
2022-11-30T01:53:59.573Z,70.63
2022-11-30T01:56:27.632Z,70.07
2022-11-30T01:58:55.666Z,70.77
2022-11-30T02:01:23.761Z,69.70
2022-11-30T02:04:00.367Z,66.17
2022-11-30T02:06:28.560Z,65.97
2022-11-30T02:08:56.772Z,65.97
2022-11-30T02:11:28.703Z,66.97
2022-11-30T02:14:24.731Z,66.87
2022-11-30T02:17:03.213Z,64.77
2022-11-30T02:19:57.991Z,67.03
2022-11-30T02:22:42.775Z,61.97
2022-11-30T02:25:19.018Z,63.17
2022-11-30T02:28:13.385Z,61.97
2022-11-30T02:30:47.099Z,63.70
2022-11-30T02:33:19.325Z,64.67
2022-11-30T02:35:55.107Z,61.93
2022-11-30T02:38:26.108Z,65.93
2022-11-30T02:40:54.315Z,64.93
2022-11-30T02:43:25.452Z,65.33
2022-11-30T02:46:04.181Z,59.77
2022-11-30T02:48:40.006Z,59.93
2022-11-30T02:51:10.964Z,61.27
2022-11-30T02:53:39.235Z,61.20
2022-11-30T02:56:07.533Z,62.50
2022-11-30T02:58:35.560Z,62.07
2022-11-30T03:01:04.961Z,59.50
2022-11-30T03:03:33.155Z,60.93
2022-11-30T03:06:01.068Z,61.73
2022-11-30T03:08:29.025Z,61.30
2022-11-30T03:10:56.937Z,60.17
2022-11-30T03:13:24.847Z,60.27
2022-11-30T03:15:52.833Z,59.47
2022-11-30T03:18:22.247Z,60.37
2022-11-30T03:20:50.238Z,58.13
2022-11-30T03:23:18.119Z,59.90
2022-11-30T03:25:46.020Z,61.77
2022-11-30T03:28:13.915Z,58.07
2022-11-30T03:30:41.819Z,61.20
2022-11-30T03:33:09.697Z,61.43
2022-11-30T03:35:39.058Z,60.00
2022-11-30T03:38:06.988Z,62.27
2022-11-30T03:40:34.883Z,61.23
2022-11-30T03:43:02.759Z,61.47
2022-11-30T03:45:30.867Z,62.03
2022-11-30T03:47:58.853Z,60.67
2022-11-30T03:50:26.775Z,62.90
2022-11-30T03:52:55.995Z,62.53
2022-11-30T03:55:24.005Z,66.07
2022-11-30T03:57:52.172Z,64.10
2022-11-30T04:00:21.489Z,67.23
2022-11-30T04:02:49.425Z,67.20
2022-11-30T04:05:17.989Z,66.90
2022-11-30T04:07:45.950Z,67.90
2022-11-30T04:10:15.504Z,66.40
2022-11-30T04:12:43.384Z,65.93
2022-11-30T04:15:12.087Z,71.10
2022-11-30T04:17:40.099Z,69.07
2022-11-30T04:20:09.091Z,67.70
2022-11-30T04:22:37.049Z,71.37
2022-11-30T04:25:05.276Z,72.97
2022-11-30T04:27:34.619Z,71.27
2022-11-30T04:30:02.493Z,71.90
2022-11-30T04:32:30.440Z,71.43
2022-11-30T04:34:58.358Z,68.33
2022-11-30T04:37:26.258Z,71.00
2022-11-30T04:39:54.206Z,67.33
2022-11-30T04:42:22.198Z,68.33
2022-11-30T04:44:51.618Z,68.53
2022-11-30T04:47:19.563Z,68.07
2022-11-30T04:49:47.442Z,66.43
2022-11-30T04:52:15.373Z,70.00
2022-11-30T04:54:43.275Z,69.53
2022-11-30T04:57:11.291Z,67.57
2022-11-30T04:59:39.190Z,66.60
2022-11-30T05:02:08.506Z,67.37
2022-11-30T05:04:36.495Z,68.43
2022-11-30T05:07:04.476Z,67.67
2022-11-30T05:09:32.359Z,67.33
2022-11-30T05:12:00.652Z,68.77
2022-11-30T05:14:28.544Z,71.73
2022-11-30T05:16:56.553Z,70.57
2022-11-30T05:19:25.808Z,70.40
2022-11-30T05:21:53.747Z,67.97
2022-11-30T05:24:21.720Z,70.90
2022-11-30T05:26:49.646Z,69.83
2022-11-30T05:29:17.564Z,69.00
2022-11-30T05:31:45.478Z,69.57
2022-11-30T05:34:13.477Z,73.43
2022-11-30T05:36:42.795Z,70.23
2022-11-30T05:39:10.718Z,73.80
2022-11-30T05:41:38.965Z,72.73
2022-11-30T05:44:06.899Z,72.40
2022-11-30T05:46:38.336Z,72.67
2022-11-30T05:49:09.021Z,76.27
2022-11-30T05:51:36.958Z,71.80
2022-11-30T05:54:06.391Z,72.30
2022-11-30T05:56:34.360Z,73.07
2022-11-30T05:59:02.302Z,73.13
2022-11-30T06:01:30.832Z,70.70
2022-11-30T06:03:58.932Z,70.40
2022-11-30T06:06:26.863Z,71.00
2022-11-30T06:08:55.472Z,71.87
2022-11-30T06:11:24.679Z,69.67
2022-11-30T06:13:52.720Z,70.20
2022-11-30T06:16:20.663Z,71.80
2022-11-30T06:18:48.601Z,67.93
2022-11-30T06:21:22.630Z,70.57
2022-11-30T06:23:52.328Z,70.43
2022-11-30T06:26:20.360Z,68.50
2022-11-30T06:28:49.853Z,70.33
2022-11-30T06:31:18.148Z,67.17
2022-11-30T06:33:46.136Z,66.07
2022-11-30T06:36:14.061Z,64.27
2022-11-30T06:38:41.998Z,65.27
2022-11-30T06:41:12.572Z,65.43
2022-11-30T06:43:41.332Z,65.50
2022-11-30T06:46:11.402Z,68.63
2022-11-30T06:48:39.487Z,66.67
2022-11-30T06:51:08.085Z,69.20
2022-11-30T06:53:36.125Z,67.83
2022-11-30T06:56:09.920Z,66.13
2022-11-30T06:58:39.238Z,68.30
2022-11-30T07:01:08.170Z,68.20
2022-11-30T07:03:37.660Z,67.47
2022-11-30T07:06:08.753Z,68.53
2022-11-30T07:08:36.762Z,69.43
2022-11-30T07:11:05.441Z,70.63
2022-11-30T07:13:33.517Z,67.73
2022-11-30T07:16:04.437Z,67.43
2022-11-30T07:18:32.827Z,69.53
2022-11-30T07:21:02.823Z,71.07
2022-11-30T07:23:55.611Z,70.67
2022-11-30T07:26:24.888Z,69.90
2022-11-30T07:28:58.338Z,73.77
2022-11-30T07:31:28.611Z,64.07
2022-11-30T07:33:57.838Z,62.77
2022-11-30T07:36:29.676Z,62.33
2022-11-30T07:38:57.656Z,60.43
2022-11-30T07:41:25.668Z,65.00
2022-11-30T07:43:53.842Z,65.90
2022-11-30T07:46:21.815Z,65.33
2022-11-30T07:48:49.834Z,66.00
2022-11-30T07:51:20.076Z,69.13
2022-11-30T07:53:49.861Z,67.57
2022-11-30T07:56:19.965Z,67.87
2022-11-30T07:58:48.771Z,68.57
2022-11-30T08:01:18.796Z,70.07
2022-11-30T08:03:46.840Z,67.90
2022-11-30T08:06:17.050Z,63.33
2022-11-30T08:08:45.983Z,60.47
2022-11-30T08:11:16.852Z,59.27
2022-11-30T08:13:45.162Z,58.43
2022-11-30T08:16:15.107Z,59.63
2022-11-30T08:18:43.624Z,62.13
2022-11-30T08:21:13.562Z,62.50
2022-11-30T08:23:43.154Z,60.97
2022-11-30T08:26:13.681Z,61.87
2022-11-30T08:28:45.782Z,61.10
2022-11-30T08:31:16.461Z,54.33
2022-11-30T08:33:44.545Z,57.67
2022-11-30T08:36:14.257Z,60.63
2022-11-30T08:38:43.512Z,59.87
2022-11-30T08:41:13.043Z,58.97
2022-11-30T08:43:42.765Z,57.33
2022-11-30T08:49:21.095Z,59.50
2022-11-30T08:54:39.121Z,56.97
2022-11-30T08:57:07.179Z,56.57
2022-11-30T08:59:36.447Z,58.50
2022-11-30T09:02:04.595Z,58.47
2022-11-30T09:04:32.525Z,58.87
2022-11-30T09:07:01.054Z,53.93
2022-11-30T09:09:29.171Z,51.93
2022-11-30T09:11:57.169Z,52.00
2022-11-30T09:14:25.048Z,54.17
2022-11-30T09:16:55.987Z,53.33
2022-11-30T09:19:24.009Z,49.80
2022-11-30T09:21:52.671Z,49.00
2022-11-30T09:24:20.921Z,45.37
2022-11-30T09:26:49.211Z,45.57
2022-11-30T09:29:17.247Z,43.10
2022-11-30T09:31:45.468Z,44.30
2022-11-30T09:34:14.730Z,46.67
2022-11-30T09:36:42.705Z,46.53
2022-11-30T09:39:12.835Z,46.30
2022-11-30T09:42:19.393Z,46.50
2022-11-30T09:44:55.758Z,48.63
2022-11-30T09:47:35.579Z,47.43
2022-11-30T09:50:11.478Z,46.67
2022-11-30T09:52:44.320Z,46.80
2022-11-30T09:55:16.421Z,48.63
2022-11-30T09:57:47.456Z,51.83
2022-11-30T10:00:18.100Z,53.27
2022-11-30T10:02:47.335Z,53.93
2022-11-30T10:05:19.550Z,52.80
2022-11-30T10:08:04.419Z,50.87
2022-11-30T10:10:40.222Z,49.90
2022-11-30T10:13:30.819Z,50.63
2022-11-30T10:16:13.105Z,48.90
2022-11-30T10:18:49.657Z,48.27
2022-11-30T10:21:39.986Z,49.13
2022-11-30T10:24:26.660Z,50.10
2022-11-30T10:26:56.305Z,41.93
2022-11-30T10:29:31.590Z,39.03
2022-11-30T10:32:01.359Z,40.97
2022-11-30T10:34:35.441Z,39.90
2022-11-30T10:37:11.186Z,37.70
2022-11-30T10:39:45.294Z,39.10
2022-11-30T10:42:19.158Z,40.20
2022-11-30T10:44:55.184Z,39.83
2022-11-30T10:47:27.696Z,38.77
2022-11-30T10:49:55.612Z,36.73
2022-11-30T10:52:28.239Z,34.17
2022-11-30T10:55:02.442Z,34.57
2022-11-30T10:57:34.588Z,31.87
2022-11-30T11:00:06.504Z,31.57
2022-11-30T11:02:46.101Z,28.57
2022-11-30T11:05:19.205Z,29.47
2022-11-30T11:07:56.415Z,28.63
2022-11-30T11:10:32.732Z,25.73
2022-11-30T11:13:00.835Z,28.30
2022-11-30T11:15:30.897Z,27.67
2022-11-30T11:18:22.816Z,28.03
2022-11-30T11:21:05.831Z,27.70
2022-11-30T11:23:38.966Z,26.80
2022-11-30T11:26:08.723Z,26.23
2022-11-30T11:28:39.466Z,25.57
2022-11-30T11:31:19.341Z,26.63
2022-11-30T11:33:55.311Z,25.80
2022-11-30T11:36:29.067Z,26.17
2022-11-30T11:38:59.338Z,27.70
2022-11-30T11:41:30.427Z,27.93
2022-11-30T11:44:03.190Z,28.90
2022-11-30T11:46:33.660Z,28.97
2022-11-30T11:49:04.036Z,29.90
2022-11-30T11:51:34.274Z,29.77
2022-11-30T11:54:15.692Z,27.30
2022-11-30T11:56:43.908Z,24.20
2022-11-30T11:59:16.717Z,26.13
2022-11-30T12:01:54.490Z,25.57
2022-11-30T12:04:41.087Z,23.87
2022-11-30T12:07:18.588Z,24.30
2022-11-30T12:09:57.373Z,25.07
2022-11-30T12:12:25.481Z,25.57
2022-11-30T12:14:54.686Z,27.27
2022-11-30T12:17:37.932Z,26.73
2022-11-30T12:20:18.415Z,25.30
2022-11-30T12:23:06.018Z,26.47
2022-11-30T12:25:43.110Z,26.30
2022-11-30T12:28:24.151Z,27.87
2022-11-30T12:31:11.725Z,27.67
2022-11-30T12:33:52.843Z,27.20
2022-11-30T12:36:30.013Z,28.73
2022-11-30T12:39:00.800Z,28.70
2022-11-30T12:41:38.619Z,29.37
2022-11-30T12:44:35.528Z,30.60
2022-11-30T12:47:18.590Z,31.23
2022-11-30T12:50:02.838Z,31.83
2022-11-30T12:52:40.941Z,31.80
2022-11-30T12:55:21.479Z,31.93
2022-11-30T12:57:57.152Z,31.97
2022-11-30T13:00:30.563Z,31.63
2022-11-30T13:03:17.119Z,33.23
2022-11-30T13:05:50.374Z,32.27
2022-11-30T13:08:23.500Z,32.20
2022-11-30T13:10:56.492Z,33.70
2022-11-30T13:13:30.127Z,35.33
2022-11-30T13:16:00.377Z,35.00
2022-11-30T13:18:28.882Z,36.33
2022-11-30T13:21:06.334Z,35.37
2022-11-30T13:23:38.292Z,33.33
2022-11-30T13:26:13.866Z,32.47
2022-11-30T13:29:04.830Z,33.00
2022-11-30T13:31:36.605Z,34.57
2022-11-30T13:34:04.650Z,34.53
2022-11-30T13:36:37.083Z,34.60
2022-11-30T13:39:23.613Z,36.50
2022-11-30T13:42:12.799Z,36.50
2022-11-30T13:44:43.382Z,36.53
2022-11-30T13:47:19.582Z,36.37
2022-11-30T13:49:48.087Z,39.53
2022-11-30T13:52:24.535Z,38.10
2022-11-30T13:54:55.649Z,38.80
2022-11-30T13:58:03.318Z,39.00
2022-11-30T14:01:02.133Z,39.07
2022-11-30T14:03:31.602Z,37.57
2022-11-30T14:06:03.497Z,39.87
2022-11-30T14:08:34.902Z,39.70
2022-11-30T14:11:41.819Z,39.63
2022-11-30T14:14:47.313Z,41.23
2022-11-30T14:17:20.511Z,42.23
2022-11-30T14:19:51.892Z,42.30
2022-11-30T14:22:20.217Z,42.57
2022-11-30T14:24:50.139Z,43.53
2022-11-30T14:27:22.188Z,43.53
2022-11-30T14:29:53.881Z,43.60
2022-11-30T14:32:36.389Z,45.07
2022-11-30T14:35:13.836Z,43.80
2022-11-30T14:37:46.040Z,42.63
2022-11-30T14:40:20.985Z,44.07
2022-11-30T14:42:51.249Z,43.23
2022-11-30T14:45:22.877Z,43.47
2022-11-30T14:48:04.827Z,43.33
2022-11-30T14:50:33.517Z,45.73
2022-11-30T14:53:21.380Z,46.90
2022-11-30T14:55:53.669Z,46.07
2022-11-30T14:58:26.884Z,46.60
2022-11-30T15:00:56.133Z,45.10
2022-11-30T15:03:33.613Z,46.27
2022-11-30T15:06:06.883Z,47.57
2022-11-30T15:08:38.876Z,46.03
2022-11-30T15:11:10.619Z,44.90
2022-11-30T15:13:40.749Z,48.30
2022-11-30T15:16:15.461Z,47.97
2022-11-30T15:18:45.153Z,44.37
2022-11-30T15:21:17.450Z,44.17
2022-11-30T15:23:51.024Z,43.50
2022-11-30T15:26:23.976Z,41.03
2022-11-30T15:28:57.617Z,40.63
2022-11-30T15:31:27.012Z,38.00
2022-11-30T15:33:56.485Z,37.47
2022-11-30T15:36:39.936Z,35.30
2022-11-30T15:39:09.667Z,33.33
2022-11-30T15:41:37.978Z,34.00
2022-11-30T15:44:06.233Z,33.60
2022-11-30T15:46:41.228Z,34.07
2022-11-30T15:49:21.354Z,34.77
2022-11-30T15:52:00.735Z,34.93
2022-11-30T15:54:49.038Z,33.10
2022-11-30T15:57:17.877Z,34.10
2022-11-30T15:59:46.817Z,36.23
2022-11-30T16:02:27.298Z,34.53
2022-11-30T16:05:24.482Z,34.67
2022-11-30T16:07:55.703Z,35.27
2022-11-30T16:10:25.865Z,37.10
2022-11-30T16:12:55.809Z,36.83
2022-11-30T16:15:25.915Z,36.20
2022-11-30T16:17:55.407Z,36.80
2022-11-30T16:20:24.992Z,38.40
2022-11-30T16:22:53.321Z,36.20
2022-11-30T16:25:23.829Z,37.30
2022-11-30T16:27:52.784Z,35.33
2022-11-30T16:30:23.607Z,35.03
2022-11-30T16:32:52.928Z,35.80
2022-11-30T16:35:24.846Z,37.80
2022-11-30T16:37:53.333Z,37.17
2022-11-30T16:40:21.432Z,37.30
2022-11-30T16:42:51.755Z,36.50
2022-11-30T16:45:22.333Z,38.93
2022-11-30T16:47:50.418Z,36.83
2022-11-30T16:50:19.050Z,36.97
2022-11-30T16:52:48.427Z,38.13
2022-11-30T16:55:18.929Z,37.27
2022-11-30T16:57:47.198Z,37.40
2022-11-30T17:00:18.315Z,37.10
2022-11-30T17:02:50.929Z,37.07
2022-11-30T17:05:19.242Z,37.73
2022-11-30T17:07:49.574Z,36.73
2022-11-30T17:10:17.843Z,37.60
2022-11-30T17:12:46.010Z,37.10
2022-11-30T17:15:17.466Z,38.60
2022-11-30T17:17:45.819Z,38.90
2022-11-30T17:20:15.447Z,40.60
2022-11-30T17:22:44.309Z,40.40
2022-11-30T17:25:17.841Z,40.47
2022-11-30T17:27:46.063Z,39.93
2022-11-30T17:30:17.942Z,39.53
2022-11-30T17:32:46.081Z,40.40
2022-11-30T17:35:14.139Z,41.20
2022-11-30T17:37:42.059Z,41.60
2022-11-30T17:40:14.439Z,41.20
2022-11-30T17:42:44.718Z,42.87
2022-11-30T17:45:12.936Z,42.63
2022-11-30T17:47:40.956Z,44.47
2022-11-30T17:50:10.087Z,46.17
2022-11-30T17:52:38.151Z,45.70
2022-11-30T17:55:06.708Z,46.40
2022-11-30T17:57:34.780Z,46.20
2022-11-30T18:00:05.648Z,46.40
2022-11-30T18:02:33.703Z,48.07
2022-11-30T18:05:01.665Z,47.37
2022-11-30T18:07:29.764Z,46.37
2022-11-30T18:09:58.628Z,47.70
2022-11-30T18:12:26.606Z,46.50
2022-11-30T18:14:54.596Z,47.67
2022-11-30T18:17:23.894Z,45.03
2022-11-30T18:19:52.054Z,47.10
2022-11-30T18:22:20.058Z,47.37
2022-11-30T18:24:48.240Z,47.87
2022-11-30T18:27:16.437Z,45.33
2022-11-30T18:29:44.408Z,46.93
2022-11-30T18:32:12.412Z,46.43
2022-11-30T18:34:41.807Z,47.77
2022-11-30T18:37:09.804Z,48.53
2022-11-30T18:39:37.723Z,48.67
2022-11-30T18:42:05.764Z,46.00
2022-11-30T18:44:33.711Z,48.23
2022-11-30T18:47:01.748Z,48.90
2022-11-30T18:49:29.680Z,47.97
2022-11-30T18:51:59.289Z,48.93
2022-11-30T18:54:27.262Z,49.13
2022-11-30T18:56:55.217Z,51.73
2022-11-30T18:59:23.260Z,50.17
2022-11-30T19:01:52.012Z,47.77
2022-11-30T19:04:20.102Z,50.03
2022-11-30T19:06:47.970Z,50.07
2022-11-30T19:09:19.079Z,50.80
2022-11-30T19:11:47.530Z,50.43
2022-11-30T19:14:17.758Z,51.87
2022-11-30T19:16:47.281Z,50.60
2022-11-30T19:19:15.528Z,49.83
2022-11-30T19:21:45.262Z,49.50
2022-11-30T19:24:13.213Z,51.93
2022-11-30T19:26:42.636Z,51.20
2022-11-30T19:29:12.087Z,51.47
2022-11-30T19:31:40.172Z,51.10
2022-11-30T19:34:12.582Z,52.27
2022-11-30T19:36:41.949Z,48.37
2022-11-30T19:39:11.382Z,49.53
2022-11-30T19:41:39.333Z,50.07
2022-11-30T19:44:13.780Z,51.23
2022-11-30T19:46:42.568Z,50.70
2022-11-30T19:49:11.347Z,50.43
2022-11-30T19:51:39.315Z,51.83
2022-11-30T19:54:07.429Z,49.93
2022-11-30T19:56:36.982Z,51.57
2022-11-30T19:59:06.064Z,53.50
2022-11-30T20:01:36.449Z,52.03
2022-11-30T20:04:05.891Z,52.40
2022-11-30T20:06:35.921Z,50.03
2022-11-30T20:09:05.392Z,49.67
2022-11-30T20:11:33.907Z,50.70
2022-11-30T20:14:01.925Z,51.17
2022-11-30T20:16:30.271Z,52.50
2022-11-30T20:19:01.844Z,49.63
2022-11-30T20:21:31.880Z,50.53
2022-11-30T20:24:01.779Z,48.57
2022-11-30T20:26:31.869Z,50.40
2022-11-30T20:29:02.199Z,51.57
2022-11-30T20:31:32.406Z,53.40
2022-11-30T20:34:01.911Z,50.23
2022-11-30T20:36:31.012Z,51.13
2022-11-30T20:38:59.910Z,52.00
2022-11-30T20:41:32.489Z,51.70
2022-11-30T20:44:00.959Z,52.97
2022-11-30T20:46:31.288Z,54.27
2022-11-30T20:49:01.588Z,52.83
2022-11-30T20:51:33.049Z,54.17
2022-11-30T20:54:03.548Z,54.30
2022-11-30T20:56:31.854Z,54.57
2022-11-30T20:59:02.682Z,55.57
2022-11-30T21:01:31.243Z,55.90
2022-11-30T21:04:00.797Z,57.30
2022-11-30T21:06:31.288Z,60.77
2022-11-30T21:08:59.776Z,57.03
2022-11-30T21:11:28.954Z,53.77
2022-11-30T21:13:58.335Z,53.67
2022-11-30T21:16:29.102Z,54.40
2022-11-30T21:18:59.038Z,56.07
2022-11-30T21:21:29.069Z,55.40
2022-11-30T21:24:00.166Z,54.73
2022-11-30T21:26:30.031Z,54.57
2022-11-30T21:29:01.864Z,54.10
2022-11-30T21:31:30.470Z,56.23
2022-11-30T21:33:58.937Z,52.97
2022-11-30T21:36:26.878Z,54.67
2022-11-30T21:39:01.049Z,55.00
2022-11-30T21:41:34.597Z,54.97
2022-11-30T21:44:02.523Z,53.43
2022-11-30T21:46:30.788Z,54.87
2022-11-30T21:48:59.011Z,54.43
2022-11-30T21:51:28.453Z,56.80
2022-11-30T21:54:00.194Z,56.50
2022-11-30T21:56:29.895Z,58.00
2022-11-30T21:58:59.992Z,57.50
2022-11-30T22:01:30.308Z,56.63
2022-11-30T22:03:59.235Z,57.40
2022-11-30T22:06:28.596Z,59.73
2022-11-30T22:08:57.731Z,58.50
2022-11-30T22:11:25.634Z,55.67
2022-11-30T22:13:54.491Z,57.27
2022-11-30T22:16:25.857Z,56.57
2022-11-30T22:18:56.211Z,58.47
2022-11-30T22:21:25.977Z,56.33
2022-11-30T22:23:55.574Z,57.07
2022-11-30T22:26:25.357Z,57.77
2022-11-30T22:28:54.904Z,56.73
2022-11-30T22:31:26.648Z,57.70
2022-11-30T22:33:54.746Z,59.50
2022-11-30T22:36:24.529Z,58.07
2022-11-30T22:38:55.846Z,56.03
2022-11-30T22:41:23.988Z,58.23
2022-11-30T22:43:52.002Z,56.63
2022-11-30T22:46:21.877Z,55.93
2022-11-30T22:48:52.122Z,55.90
2022-11-30T22:51:23.236Z,57.80
2022-11-30T22:53:52.124Z,58.23
2022-11-30T22:56:21.776Z,56.63
2022-11-30T22:58:51.176Z,57.57
2022-11-30T23:01:20.820Z,57.03
2022-11-30T23:03:53.541Z,56.20
2022-11-30T23:06:22.632Z,57.90
2022-11-30T23:08:51.972Z,55.47
2022-11-30T23:11:21.718Z,56.87
2022-11-30T23:13:50.256Z,57.30
2022-11-30T23:16:19.136Z,58.97
2022-11-30T23:18:49.598Z,58.07
2022-11-30T23:21:21.464Z,58.40
2022-11-30T23:23:50.088Z,58.33
2022-11-30T23:26:20.244Z,58.43
2022-11-30T23:28:50.336Z,59.43
2022-11-30T23:31:34.080Z,59.17
2022-11-30T23:34:03.816Z,58.83
2022-11-30T23:36:33.906Z,62.10
2022-11-30T23:39:04.316Z,59.43
2022-11-30T23:41:32.363Z,59.20
2022-11-30T23:44:00.629Z,58.90
2022-11-30T23:46:28.685Z,59.67
2022-11-30T23:48:56.765Z,62.00
2022-11-30T23:51:25.097Z,58.50
2022-11-30T23:53:54.902Z,58.60
2022-11-30T23:56:24.003Z,61.77
2022-11-30T23:58:52.405Z,59.33
